Anzoras — EAZC — position and weather

sailwx.info

Track history (hours):
 
Tides and Currents Weather Stations Pressure Air Temp Water Temp Dewpoint Dewpoint Depression Visibility Wind Speed Wind Dir Waves Ship Positions

Anzoras

Last reported at 2017-Dec-15 01:00 UTC. Time now 2017-Dec-16 18:56 UTC.
Position N 43°21' E 004°58'.

Length 100 m; draft 6.5 m.

Type: Cargo ship. MMSI: 224376000.

Date/timePositionNaut miles runAvg speedWind from/ knotsBaromVisibWave heightAir tempDewpointWater temp
2017-Dec-15 01:00N 43°21' E 004°58'4 8.4
2017-Dec-15 00:30N 43°24' E 004°54'2 0.3
2017-Dec-14 18:23N 43°26' E 004°53'0 0.0
2017-Dec-14 17:50N 43°26' E 004°53'0 0.0
2017-Dec-14 17:14N 43°26' E 004°53'0 0.0
2017-Dec-14 16:53N 43°26' E 004°53'0 0.0
2017-Dec-14 15:53N 43°26' E 004°53'0 0.0
2017-Dec-14 14:59N 43°26' E 004°53'0 0.0
2017-Dec-14 14:11N 43°26' E 004°53'0 0.0
2017-Dec-14 13:53N 43°26' E 004°53'0 0.0
2017-Dec-14 13:23N 43°26' E 004°53'0 0.0
2017-Dec-14 12:47N 43°26' E 004°53'0 0.0
2017-Dec-14 12:17N 43°26' E 004°53'0 0.0
2017-Dec-14 11:56N 43°26' E 004°53'0 0.0
2017-Dec-14 11:29N 43°26' E 004°53'0 0.0
2017-Dec-14 10:59N 43°26' E 004°53'0 0.0
2017-Dec-14 10:29N 43°26' E 004°53'0 0.0
2017-Dec-14 09:59N 43°26' E 004°53'0 0.0
2017-Dec-14 09:23N 43°26' E 004°53'0 0.0
2017-Dec-14 08:59N 43°26' E 004°53'0 0.0
2017-Dec-14 08:29N 43°26' E 004°53'0 0.0
2017-Dec-14 07:59N 43°26' E 004°53'0 0.0
2017-Dec-14 07:20N 43°26' E 004°53'0 0.0
2017-Dec-14 06:59N 43°26' E 004°53'0 0.0
2017-Dec-14 06:26N 43°26' E 004°53'0 0.0
2017-Dec-14 05:59N 43°26' E 004°53'0 0.0
2017-Dec-14 04:38N 43°26' E 004°53'0 0.0
2017-Dec-14 04:29N 43°26' E 004°53'0 0.0
2017-Dec-14 03:59N 43°26' E 004°53'0 0.0
2017-Dec-14 03:29N 43°26' E 004°53'0 0.0
2017-Dec-14 02:59N 43°26' E 004°53'0 0.0
2017-Dec-14 02:29N 43°26' E 004°53'0 0.0
2017-Dec-14 01:59N 43°26' E 004°53'0 0.0
2017-Dec-14 01:29N 43°26' E 004°53'0 0.0
2017-Dec-14 00:59N 43°26' E 004°53'0 0.0
2017-Dec-14 00:29N 43°26' E 004°53'0 0.0
2017-Dec-13 23:56N 43°26' E 004°53'0 0.0
2017-Dec-13 23:26N 43°26' E 004°53'0 0.0
2017-Dec-13 22:59N 43°26' E 004°53'0 0.0
2017-Dec-13 22:26N 43°26' E 004°53'0 0.0
2017-Dec-13 21:59N 43°26' E 004°53'0 0.0
2017-Dec-13 21:29N 43°26' E 004°53'0 0.0
2017-Dec-13 20:59N 43°26' E 004°53'0 0.0
2017-Dec-13 20:29N 43°26' E 004°53'0 0.0
2017-Dec-13 19:56N 43°26' E 004°53'0 0.0
2017-Dec-13 19:20N 43°26' E 004°53'0 0.0
2017-Dec-13 18:53N 43°26' E 004°53'0 0.0
2017-Dec-13 18:26N 43°26' E 004°53'0 0.0
2017-Dec-13 17:56N 43°26' E 004°53'0 0.0
2017-Dec-13 17:26N 43°26' E 004°53'0 0.0
2017-Dec-13 16:59N 43°26' E 004°53'0 0.0
2017-Dec-13 16:29N 43°26' E 004°53'0 0.0
2017-Dec-13 15:56N 43°26' E 004°53'0 0.0
2017-Dec-13 15:29N 43°26' E 004°53'0 0.0
2017-Dec-13 14:56N 43°26' E 004°53'0 0.0
2017-Dec-13 14:25N 43°26' E 004°53'2 4.2
2017-Dec-13 14:01N 43°24' E 004°54'2 3.3
2017-Dec-13 13:31N 43°25' E 004°56'0 0.0
2017-Dec-13 12:58N 43°25' E 004°56'0 0.1
2017-Dec-13 12:28N 43°25' E 004°56'0 0.0
2017-Dec-13 11:58N 43°25' E 004°56'0 0.0
2017-Dec-13 11:31N 43°25' E 004°56'0 0.0
2017-Dec-13 11:01N 43°25' E 004°56'0 0.0
2017-Dec-13 10:28N 43°25' E 004°56'0 0.0
2017-Dec-13 09:55N 43°25' E 004°56'0 0.1
2017-Dec-13 09:31N 43°25' E 004°56'0 0.0
2017-Dec-13 09:01N 43°25' E 004°56'0 0.1
2017-Dec-13 08:28N 43°25' E 004°56'0 0.0
2017-Dec-13 07:58N 43°25' E 004°56'0 0.0
2017-Dec-13 07:31N 43°25' E 004°56'0 0.0
2017-Dec-13 06:55N 43°25' E 004°56'0 0.1
2017-Dec-13 06:31N 43°25' E 004°56'0 0.2
2017-Dec-13 06:00N 43°25' E 004°56'3 6.0
2017-Dec-13 05:30N 43°22' E 004°58'4 8.1
2017-Dec-13 04:57N 43°18' E 004°60'178 8.3
2017-Dec-12 07:27N 43°07' E 009°03'4 8.8
2017-Dec-12 06:58N 43°07' E 009°09'4 8.5
2017-Dec-12 06:29N 43°07' E 009°15'28 6.6
2017-Dec-12 02:13N 42°53' E 009°48'20 6.1
2017-Dec-11 22:52N 42°53' E 010°16'19 2.0
2017-Dec-11 13:10N 42°50' E 009°51'4 9.0
2017-Dec-11 12:41N 42°45' E 009°48'  
Track history (hours):
 
Tides and Currents Weather Stations Pressure Air Temp Water Temp Dewpoint Dewpoint Depression Visibility Wind Speed Wind Dir Waves Ship Positions

Anzoras

Last reported at 2017-Dec-15 01:00 UTC. Time now 2017-Dec-16 18:56 UTC.
Position N 43°21' E 004°58'.

Length 100 m; draft 6.5 m.

Type: Cargo ship. MMSI: 224376000.

Date/timePositionNaut miles runAvg speedWind from/ knotsBaromVisibWave heightAir tempDewpointWater temp
2017-Dec-15 01:00N 43°21' E 004°58'4 8.4
2017-Dec-15 00:30N 43°24' E 004°54'2 0.3
2017-Dec-14 18:23N 43°26' E 004°53'0 0.0
2017-Dec-14 17:50N 43°26' E 004°53'0 0.0
2017-Dec-14 17:14N 43°26' E 004°53'0 0.0
2017-Dec-14 16:53N 43°26' E 004°53'0 0.0
2017-Dec-14 15:53N 43°26' E 004°53'0 0.0
2017-Dec-14 14:59N 43°26' E 004°53'0 0.0
2017-Dec-14 14:11N 43°26' E 004°53'0 0.0
2017-Dec-14 13:53N 43°26' E 004°53'0 0.0
2017-Dec-14 13:23N 43°26' E 004°53'0 0.0
2017-Dec-14 12:47N 43°26' E 004°53'0 0.0
2017-Dec-14 12:17N 43°26' E 004°53'0 0.0
2017-Dec-14 11:56N 43°26' E 004°53'0 0.0
2017-Dec-14 11:29N 43°26' E 004°53'0 0.0
2017-Dec-14 10:59N 43°26' E 004°53'0 0.0
2017-Dec-14 10:29N 43°26' E 004°53'0 0.0
2017-Dec-14 09:59N 43°26' E 004°53'0 0.0
2017-Dec-14 09:23N 43°26' E 004°53'0 0.0
2017-Dec-14 08:59N 43°26' E 004°53'0 0.0
2017-Dec-14 08:29N 43°26' E 004°53'0 0.0
2017-Dec-14 07:59N 43°26' E 004°53'0 0.0
2017-Dec-14 07:20N 43°26' E 004°53'0 0.0
2017-Dec-14 06:59N 43°26' E 004°53'0 0.0
2017-Dec-14 06:26N 43°26' E 004°53'0 0.0
2017-Dec-14 05:59N 43°26' E 004°53'0 0.0
2017-Dec-14 04:38N 43°26' E 004°53'0 0.0
2017-Dec-14 04:29N 43°26' E 004°53'0 0.0
2017-Dec-14 03:59N 43°26' E 004°53'0 0.0
2017-Dec-14 03:29N 43°26' E 004°53'0 0.0
2017-Dec-14 02:59N 43°26' E 004°53'0 0.0
2017-Dec-14 02:29N 43°26' E 004°53'0 0.0
2017-Dec-14 01:59N 43°26' E 004°53'0 0.0
2017-Dec-14 01:29N 43°26' E 004°53'0 0.0
2017-Dec-14 00:59N 43°26' E 004°53'0 0.0
2017-Dec-14 00:29N 43°26' E 004°53'0 0.0
2017-Dec-13 23:56N 43°26' E 004°53'0 0.0
2017-Dec-13 23:26N 43°26' E 004°53'0 0.0
2017-Dec-13 22:59N 43°26' E 004°53'0 0.0
2017-Dec-13 22:26N 43°26' E 004°53'0 0.0
2017-Dec-13 21:59N 43°26' E 004°53'0 0.0
2017-Dec-13 21:29N 43°26' E 004°53'0 0.0
2017-Dec-13 20:59N 43°26' E 004°53'0 0.0
2017-Dec-13 20:29N 43°26' E 004°53'0 0.0
2017-Dec-13 19:56N 43°26' E 004°53'0 0.0
2017-Dec-13 19:20N 43°26' E 004°53'0 0.0
2017-Dec-13 18:53N 43°26' E 004°53'0 0.0
2017-Dec-13 18:26N 43°26' E 004°53'0 0.0
2017-Dec-13 17:56N 43°26' E 004°53'0 0.0
2017-Dec-13 17:26N 43°26' E 004°53'0 0.0
2017-Dec-13 16:59N 43°26' E 004°53'0 0.0
2017-Dec-13 16:29N 43°26' E 004°53'0 0.0
2017-Dec-13 15:56N 43°26' E 004°53'0 0.0
2017-Dec-13 15:29N 43°26' E 004°53'0 0.0
2017-Dec-13 14:56N 43°26' E 004°53'0 0.0
2017-Dec-13 14:25N 43°26' E 004°53'2 4.2
2017-Dec-13 14:01N 43°24' E 004°54'2 3.3
2017-Dec-13 13:31N 43°25' E 004°56'0 0.0
2017-Dec-13 12:58N 43°25' E 004°56'0 0.1
2017-Dec-13 12:28N 43°25' E 004°56'0 0.0
2017-Dec-13 11:58N 43°25' E 004°56'0 0.0
2017-Dec-13 11:31N 43°25' E 004°56'0 0.0
2017-Dec-13 11:01N 43°25' E 004°56'0 0.0
2017-Dec-13 10:28N 43°25' E 004°56'0 0.0
2017-Dec-13 09:55N 43°25' E 004°56'0 0.1
2017-Dec-13 09:31N 43°25' E 004°56'0 0.0
2017-Dec-13 09:01N 43°25' E 004°56'0 0.1
2017-Dec-13 08:28N 43°25' E 004°56'0 0.0
2017-Dec-13 07:58N 43°25' E 004°56'0 0.0
2017-Dec-13 07:31N 43°25' E 004°56'0 0.0
2017-Dec-13 06:55N 43°25' E 004°56'0 0.1
2017-Dec-13 06:31N 43°25' E 004°56'0 0.2
2017-Dec-13 06:00N 43°25' E 004°56'3 6.0
2017-Dec-13 05:30N 43°22' E 004°58'4 8.1
2017-Dec-13 04:57N 43°18' E 004°60'178 8.3
2017-Dec-12 07:27N 43°07' E 009°03'4 8.8
2017-Dec-12 06:58N 43°07' E 009°09'4 8.5
2017-Dec-12 06:29N 43°07' E 009°15'28 6.6
2017-Dec-12 02:13N 42°53' E 009°48'20 6.1
2017-Dec-11 22:52N 42°53' E 010°16'19 2.0
2017-Dec-11 13:10N 42°50' E 009°51'4 9.0
2017-Dec-11 12:41N 42°45' E 009°48'  

Dump ship's entire track history